sensor_id;sensor_type;location;lat;lon;timestamp;temperature;humidity
56542;DHT22;42438;53.174;6.730;2024-03-22T00:01:54;9.30;99.90
56542;DHT22;42438;53.174;6.730;2024-03-22T00:04:25;9.60;99.90
56542;DHT22;42438;53.174;6.730;2024-03-22T00:06:56;9.60;99.90
56542;DHT22;42438;53.174;6.730;2024-03-22T00:09:26;9.50;99.90
56542;DHT22;42438;53.174;6.730;2024-03-22T00:11:57;9.40;99.90
56542;DHT22;42438;53.174;6.730;2024-03-22T00:14:28;9.60;99.90
56542;DHT22;42438;53.174;6.730;2024-03-22T00:16:58;9.40;99.90
56542;DHT22;42438;53.174;6.730;2024-03-22T00:19:29;9.50;99.90
56542;DHT22;42438;53.174;6.730;2024-03-22T00:22:00;9.70;99.90
56542;DHT22;42438;53.174;6.730;2024-03-22T00:24:30;9.50;99.90
56542;DHT22;42438;53.174;6.730;2024-03-22T00:27:01;9.50;99.90
56542;DHT22;42438;53.174;6.730;2024-03-22T00:29:31;9.80;99.90
56542;DHT22;42438;53.174;6.730;2024-03-22T00:32:02;9.60;99.90
56542;DHT22;42438;53.174;6.730;2024-03-22T00:34:33;9.80;99.90
56542;DHT22;42438;53.174;6.730;2024-03-22T00:37:04;9.50;99.90
56542;DHT22;42438;53.174;6.730;2024-03-22T00:39:34;9.60;99.90
56542;DHT22;42438;53.174;6.730;2024-03-22T00:42:06;9.60;99.90
56542;DHT22;42438;53.174;6.730;2024-03-22T00:44:36;9.50;99.90
56542;DHT22;42438;53.174;6.730;2024-03-22T00:47:07;9.80;99.90
56542;DHT22;42438;53.174;6.730;2024-03-22T00:49:37;9.60;99.90
56542;DHT22;42438;53.174;6.730;2024-03-22T00:52:08;9.90;99.90
56542;DHT22;42438;53.174;6.730;2024-03-22T00:54:39;9.80;99.90
56542;DHT22;42438;53.174;6.730;2024-03-22T00:57:10;9.60;99.90
56542;DHT22;42438;53.174;6.730;2024-03-22T00:59:41;9.90;99.90
56542;DHT22;42438;53.174;6.730;2024-03-22T01:02:12;9.90;99.90
56542;DHT22;42438;53.174;6.730;2024-03-22T01:04:42;9.90;99.90
56542;DHT22;42438;53.174;6.730;2024-03-22T01:07:13;9.90;99.90
56542;DHT22;42438;53.174;6.730;2024-03-22T01:09:43;9.70;99.90
56542;DHT22;42438;53.174;6.730;2024-03-22T01:12:14;10.00;99.90
56542;DHT22;42438;53.174;6.730;2024-03-22T01:14:45;9.70;99.90
56542;DHT22;42438;53.174;6.730;2024-03-22T01:17:16;9.60;99.90
56542;DHT22;42438;53.174;6.730;2024-03-22T01:19:46;9.90;99.90
56542;DHT22;42438;53.174;6.730;2024-03-22T01:22:17;9.70;99.90
56542;DHT22;42438;53.174;6.730;2024-03-22T01:24:48;9.80;99.90
56542;DHT22;42438;53.174;6.730;2024-03-22T01:27:18;9.80;99.90
56542;DHT22;42438;53.174;6.730;2024-03-22T01:29:49;10.00;99.90
56542;DHT22;42438;53.174;6.730;2024-03-22T01:32:19;9.70;99.90
56542;DHT22;42438;53.174;6.730;2024-03-22T01:34:50;10.10;99.90
56542;DHT22;42438;53.174;6.730;2024-03-22T01:37:21;10.00;99.90
56542;DHT22;42438;53.174;6.730;2024-03-22T01:39:51;9.80;99.90
56542;DHT22;42438;53.174;6.730;2024-03-22T01:42:22;9.80;99.90
56542;DHT22;42438;53.174;6.730;2024-03-22T01:44:52;10.00;99.90
56542;DHT22;42438;53.174;6.730;2024-03-22T01:47:23;10.00;99.90
56542;DHT22;42438;53.174;6.730;2024-03-22T01:49:53;9.80;99.90
56542;DHT22;42438;53.174;6.730;2024-03-22T01:52:25;9.70;99.90
56542;DHT22;42438;53.174;6.730;2024-03-22T01:54:55;10.10;99.90
56542;DHT22;42438;53.174;6.730;2024-03-22T01:57:26;9.80;99.90
56542;DHT22;42438;53.174;6.730;2024-03-22T01:59:57;10.10;99.90
56542;DHT22;42438;53.174;6.730;2024-03-22T02:02:30;10.20;99.90
56542;DHT22;42438;53.174;6.730;2024-03-22T02:05:16;10.00;99.90
56542;DHT22;42438;53.174;6.730;2024-03-22T02:07:49;9.90;99.90
56542;DHT22;42438;53.174;6.730;2024-03-22T02:10:20;10.10;99.90
56542;DHT22;42438;53.174;6.730;2024-03-22T02:12:50;10.20;99.90
56542;DHT22;42438;53.174;6.730;2024-03-22T02:15:21;9.90;99.90
56542;DHT22;42438;53.174;6.730;2024-03-22T02:17:52;9.90;99.90
56542;DHT22;42438;53.174;6.730;2024-03-22T02:20:22;9.90;99.90
56542;DHT22;42438;53.174;6.730;2024-03-22T02:22:53;10.10;99.90
56542;DHT22;42438;53.174;6.730;2024-03-22T02:25:23;10.30;99.90
56542;DHT22;42438;53.174;6.730;2024-03-22T02:27:54;10.30;99.90
56542;DHT22;42438;53.174;6.730;2024-03-22T02:30:24;10.20;99.90
56542;DHT22;42438;53.174;6.730;2024-03-22T02:32:55;10.30;99.90
56542;DHT22;42438;53.174;6.730;2024-03-22T02:35:25;10.20;99.90
56542;DHT22;42438;53.174;6.730;2024-03-22T02:37:56;10.40;99.90
56542;DHT22;42438;53.174;6.730;2024-03-22T02:40:29;10.20;99.90
56542;DHT22;42438;53.174;6.730;2024-03-22T02:42:59;10.30;99.90
56542;DHT22;42438;53.174;6.730;2024-03-22T02:45:30;10.00;99.90
56542;DHT22;42438;53.174;6.730;2024-03-22T02:48:01;10.00;99.90
56542;DHT22;42438;53.174;6.730;2024-03-22T02:50:35;10.30;99.90
56542;DHT22;42438;53.174;6.730;2024-03-22T02:53:05;10.20;99.90
56542;DHT22;42438;53.174;6.730;2024-03-22T02:55:37;10.00;99.90
56542;DHT22;42438;53.174;6.730;2024-03-22T02:58:08;10.30;99.90
56542;DHT22;42438;53.174;6.730;2024-03-22T03:00:39;10.00;99.90
56542;DHT22;42438;53.174;6.730;2024-03-22T03:03:09;10.30;99.90
56542;DHT22;42438;53.174;6.730;2024-03-22T03:05:41;10.00;99.90
56542;DHT22;42438;53.174;6.730;2024-03-22T03:08:12;10.20;99.90
56542;DHT22;42438;53.174;6.730;2024-03-22T03:10:42;10.30;99.90
56542;DHT22;42438;53.174;6.730;2024-03-22T03:13:13;10.10;99.90
56542;DHT22;42438;53.174;6.730;2024-03-22T03:15:43;10.30;99.90
56542;DHT22;42438;53.174;6.730;2024-03-22T03:18:14;10.00;99.90
56542;DHT22;42438;53.174;6.730;2024-03-22T03:20:44;10.30;99.90
56542;DHT22;42438;53.174;6.730;2024-03-22T03:23:15;9.90;99.90
56542;DHT22;42438;53.174;6.730;2024-03-22T03:25:45;10.10;99.90
56542;DHT22;42438;53.174;6.730;2024-03-22T03:28:16;10.40;99.90
56542;DHT22;42438;53.174;6.730;2024-03-22T03:30:47;10.00;99.90
56542;DHT22;42438;53.174;6.730;2024-03-22T03:33:17;10.40;99.90
56542;DHT22;42438;53.174;6.730;2024-03-22T03:35:48;10.40;99.90
56542;DHT22;42438;53.174;6.730;2024-03-22T03:38:18;10.30;99.90
56542;DHT22;42438;53.174;6.730;2024-03-22T03:40:49;10.20;99.90
56542;DHT22;42438;53.174;6.730;2024-03-22T03:43:19;9.90;99.90
56542;DHT22;42438;53.174;6.730;2024-03-22T03:45:50;10.40;99.90
56542;DHT22;42438;53.174;6.730;2024-03-22T03:48:21;10.40;99.90
56542;DHT22;42438;53.174;6.730;2024-03-22T03:50:54;9.90;99.90
56542;DHT22;42438;53.174;6.730;2024-03-22T03:53:25;9.90;99.90
56542;DHT22;42438;53.174;6.730;2024-03-22T03:55:56;10.40;99.90
56542;DHT22;42438;53.174;6.730;2024-03-22T03:58:26;10.50;99.90
56542;DHT22;42438;53.174;6.730;2024-03-22T04:00:57;10.40;99.90
56542;DHT22;42438;53.174;6.730;2024-03-22T04:03:27;10.50;99.90
56542;DHT22;42438;53.174;6.730;2024-03-22T04:05:58;10.10;99.90
56542;DHT22;42438;53.174;6.730;2024-03-22T04:08:29;10.10;99.90
56542;DHT22;42438;53.174;6.730;2024-03-22T04:11:01;10.10;99.90
56542;DHT22;42438;53.174;6.730;2024-03-22T04:13:33;10.00;99.90
56542;DHT22;42438;53.174;6.730;2024-03-22T04:16:04;10.50;99.90
56542;DHT22;42438;53.174;6.730;2024-03-22T04:18:35;10.60;99.90
56542;DHT22;42438;53.174;6.730;2024-03-22T04:21:05;10.10;99.90
56542;DHT22;42438;53.174;6.730;2024-03-22T04:23:36;10.50;99.90
56542;DHT22;42438;53.174;6.730;2024-03-22T04:26:07;10.40;99.90
56542;DHT22;42438;53.174;6.730;2024-03-22T04:28:37;10.40;99.90
56542;DHT22;42438;53.174;6.730;2024-03-22T04:31:08;10.20;99.90
56542;DHT22;42438;53.174;6.730;2024-03-22T04:33:39;10.50;99.90
56542;DHT22;42438;53.174;6.730;2024-03-22T04:36:10;10.60;99.90
56542;DHT22;42438;53.174;6.730;2024-03-22T04:38:40;10.30;99.90
56542;DHT22;42438;53.174;6.730;2024-03-22T04:41:11;10.20;99.90
56542;DHT22;42438;53.174;6.730;2024-03-22T04:43:42;10.30;99.90
56542;DHT22;42438;53.174;6.730;2024-03-22T04:46:13;10.30;99.90
56542;DHT22;42438;53.174;6.730;2024-03-22T04:48:43;10.40;99.90
56542;DHT22;42438;53.174;6.730;2024-03-22T04:51:14;10.70;99.90
56542;DHT22;42438;53.174;6.730;2024-03-22T04:53:45;10.20;99.90
56542;DHT22;42438;53.174;6.730;2024-03-22T04:56:15;10.60;99.90
56542;DHT22;42438;53.174;6.730;2024-03-22T04:58:46;10.40;99.90
56542;DHT22;42438;53.174;6.730;2024-03-22T05:01:17;10.60;99.90
56542;DHT22;42438;53.174;6.730;2024-03-22T05:03:48;10.30;99.90
56542;DHT22;42438;53.174;6.730;2024-03-22T05:06:18;10.70;99.90
56542;DHT22;42438;53.174;6.730;2024-03-22T05:08:49;10.60;99.90
56542;DHT22;42438;53.174;6.730;2024-03-22T05:11:20;10.60;99.90
56542;DHT22;42438;53.174;6.730;2024-03-22T05:13:50;10.20;99.90
56542;DHT22;42438;53.174;6.730;2024-03-22T05:16:21;10.60;99.90
56542;DHT22;42438;53.174;6.730;2024-03-22T05:18:51;10.20;99.90
56542;DHT22;42438;53.174;6.730;2024-03-22T05:21:22;10.10;99.90
56542;DHT22;42438;53.174;6.730;2024-03-22T05:23:52;10.30;99.90
56542;DHT22;42438;53.174;6.730;2024-03-22T05:26:23;10.60;99.90
56542;DHT22;42438;53.174;6.730;2024-03-22T05:28:53;10.50;99.90
56542;DHT22;42438;53.174;6.730;2024-03-22T05:31:24;10.10;99.90
56542;DHT22;42438;53.174;6.730;2024-03-22T05:33:55;10.50;99.90
56542;DHT22;42438;53.174;6.730;2024-03-22T05:36:25;10.30;99.90
56542;DHT22;42438;53.174;6.730;2024-03-22T05:38:56;10.40;99.90
56542;DHT22;42438;53.174;6.730;2024-03-22T05:41:26;10.60;99.90
56542;DHT22;42438;53.174;6.730;2024-03-22T05:43:57;10.20;99.90
56542;DHT22;42438;53.174;6.730;2024-03-22T05:46:27;10.10;99.90
56542;DHT22;42438;53.174;6.730;2024-03-22T05:48:58;10.10;99.90
56542;DHT22;42438;53.174;6.730;2024-03-22T05:51:28;10.40;99.90
56542;DHT22;42438;53.174;6.730;2024-03-22T05:54:00;10.20;99.90
56542;DHT22;42438;53.174;6.730;2024-03-22T05:56:31;10.50;99.90
56542;DHT22;42438;53.174;6.730;2024-03-22T05:59:01;10.50;99.90
56542;DHT22;42438;53.174;6.730;2024-03-22T06:01:32;10.00;99.90
56542;DHT22;42438;53.174;6.730;2024-03-22T06:04:03;10.20;99.90
56542;DHT22;42438;53.174;6.730;2024-03-22T06:06:34;10.20;99.90
56542;DHT22;42438;53.174;6.730;2024-03-22T06:09:05;9.90;99.90
56542;DHT22;42438;53.174;6.730;2024-03-22T06:11:41;9.90;99.90
56542;DHT22;42438;53.174;6.730;2024-03-22T06:14:14;10.00;99.90
56542;DHT22;42438;53.174;6.730;2024-03-22T06:16:44;10.30;99.90
56542;DHT22;42438;53.174;6.730;2024-03-22T06:19:15;9.90;99.90
56542;DHT22;42438;53.174;6.730;2024-03-22T06:21:46;10.20;99.90
56542;DHT22;42438;53.174;6.730;2024-03-22T06:24:16;9.80;99.90
56542;DHT22;42438;53.174;6.730;2024-03-22T06:26:47;10.30;99.90
56542;DHT22;42438;53.174;6.730;2024-03-22T06:29:19;10.00;99.90
56542;DHT22;42438;53.174;6.730;2024-03-22T06:31:50;10.20;99.90
56542;DHT22;42438;53.174;6.730;2024-03-22T06:34:22;10.20;99.90
56542;DHT22;42438;53.174;6.730;2024-03-22T06:36:53;9.80;99.90
56542;DHT22;42438;53.174;6.730;2024-03-22T06:39:24;10.20;99.90
56542;DHT22;42438;53.174;6.730;2024-03-22T06:41:54;10.00;99.90
56542;DHT22;42438;53.174;6.730;2024-03-22T06:44:25;10.20;99.90
56542;DHT22;42438;53.174;6.730;2024-03-22T06:46:55;10.20;99.90
56542;DHT22;42438;53.174;6.730;2024-03-22T06:49:26;10.20;99.90
56542;DHT22;42438;53.174;6.730;2024-03-22T06:51:57;9.90;99.90
56542;DHT22;42438;53.174;6.730;2024-03-22T06:54:27;10.20;99.90
56542;DHT22;42438;53.174;6.730;2024-03-22T06:56:58;9.90;99.90
56542;DHT22;42438;53.174;6.730;2024-03-22T06:59:29;10.20;99.90
56542;DHT22;42438;53.174;6.730;2024-03-22T07:02:00;10.00;99.90
56542;DHT22;42438;53.174;6.730;2024-03-22T07:04:30;10.10;99.90
56542;DHT22;42438;53.174;6.730;2024-03-22T07:07:01;9.80;99.90
56542;DHT22;42438;53.174;6.730;2024-03-22T07:09:34;9.90;99.90
56542;DHT22;42438;53.174;6.730;2024-03-22T07:12:06;10.00;99.90
56542;DHT22;42438;53.174;6.730;2024-03-22T07:14:36;10.20;99.90
56542;DHT22;42438;53.174;6.730;2024-03-22T07:17:07;10.20;99.90
56542;DHT22;42438;53.174;6.730;2024-03-22T07:19:38;9.80;99.90
56542;DHT22;42438;53.174;6.730;2024-03-22T07:22:08;10.20;99.90
56542;DHT22;42438;53.174;6.730;2024-03-22T07:24:39;9.90;99.90
56542;DHT22;42438;53.174;6.730;2024-03-22T07:27:10;10.10;99.90
56542;DHT22;42438;53.174;6.730;2024-03-22T07:29:40;9.80;99.90
56542;DHT22;42438;53.174;6.730;2024-03-22T07:32:11;10.00;99.90
56542;DHT22;42438;53.174;6.730;2024-03-22T07:34:45;10.00;99.90
56542;DHT22;42438;53.174;6.730;2024-03-22T07:37:16;10.10;99.90
56542;DHT22;42438;53.174;6.730;2024-03-22T07:39:46;10.00;99.90
56542;DHT22;42438;53.174;6.730;2024-03-22T07:42:17;10.20;99.90
56542;DHT22;42438;53.174;6.730;2024-03-22T07:44:47;10.10;99.90
56542;DHT22;42438;53.174;6.730;2024-03-22T07:47:18;9.80;99.90
56542;DHT22;42438;53.174;6.730;2024-03-22T07:49:49;10.10;99.90
56542;DHT22;42438;53.174;6.730;2024-03-22T07:52:19;10.10;99.90
56542;DHT22;42438;53.174;6.730;2024-03-22T07:54:50;9.90;99.90
56542;DHT22;42438;53.174;6.730;2024-03-22T07:57:20;10.20;99.90
56542;DHT22;42438;53.174;6.730;2024-03-22T07:59:51;9.90;99.90
56542;DHT22;42438;53.174;6.730;2024-03-22T08:02:22;10.00;99.90
56542;DHT22;42438;53.174;6.730;2024-03-22T08:04:52;9.90;99.90
56542;DHT22;42438;53.174;6.730;2024-03-22T08:07:23;9.90;99.90
56542;DHT22;42438;53.174;6.730;2024-03-22T08:09:53;9.90;99.90
56542;DHT22;42438;53.174;6.730;2024-03-22T08:12:26;10.00;99.90
56542;DHT22;42438;53.174;6.730;2024-03-22T08:14:56;10.20;99.90
56542;DHT22;42438;53.174;6.730;2024-03-22T08:17:27;10.20;99.90
56542;DHT22;42438;53.174;6.730;2024-03-22T08:19:57;10.30;99.90
56542;DHT22;42438;53.174;6.730;2024-03-22T08:22:28;10.00;99.90
56542;DHT22;42438;53.174;6.730;2024-03-22T08:24:59;9.90;99.90
56542;DHT22;42438;53.174;6.730;2024-03-22T08:27:32;10.10;99.90
56542;DHT22;42438;53.174;6.730;2024-03-22T08:30:03;10.30;99.90
56542;DHT22;42438;53.174;6.730;2024-03-22T08:32:34;10.20;99.90
56542;DHT22;42438;53.174;6.730;2024-03-22T08:35:05;10.00;99.90
56542;DHT22;42438;53.174;6.730;2024-03-22T08:37:35;10.20;99.90
56542;DHT22;42438;53.174;6.730;2024-03-22T08:40:06;10.00;99.90
56542;DHT22;42438;53.174;6.730;2024-03-22T08:42:37;10.40;99.90
56542;DHT22;42438;53.174;6.730;2024-03-22T08:45:08;10.40;99.90
56542;DHT22;42438;53.174;6.730;2024-03-22T08:47:39;10.30;99.90
56542;DHT22;42438;53.174;6.730;2024-03-22T08:50:10;10.30;99.90
56542;DHT22;42438;53.174;6.730;2024-03-22T08:52:41;10.10;99.90
56542;DHT22;42438;53.174;6.730;2024-03-22T08:55:11;10.20;99.90
56542;DHT22;42438;53.174;6.730;2024-03-22T08:57:43;10.40;99.90
56542;DHT22;42438;53.174;6.730;2024-03-22T09:00:14;10.20;99.90
56542;DHT22;42438;53.174;6.730;2024-03-22T09:02:44;10.20;99.90
56542;DHT22;42438;53.174;6.730;2024-03-22T09:05:15;10.40;99.90
56542;DHT22;42438;53.174;6.730;2024-03-22T09:07:45;10.30;99.90
56542;DHT22;42438;53.174;6.730;2024-03-22T09:10:16;10.30;99.90
56542;DHT22;42438;53.174;6.730;2024-03-22T09:12:46;10.40;99.90
56542;DHT22;42438;53.174;6.730;2024-03-22T09:15:17;10.50;99.90
56542;DHT22;42438;53.174;6.730;2024-03-22T09:17:48;10.40;99.90
56542;DHT22;42438;53.174;6.730;2024-03-22T09:20:18;10.40;99.90
56542;DHT22;42438;53.174;6.730;2024-03-22T09:22:49;10.30;99.90
56542;DHT22;42438;53.174;6.730;2024-03-22T09:25:19;10.50;99.90
56542;DHT22;42438;53.174;6.730;2024-03-22T09:27:50;10.40;99.90
56542;DHT22;42438;53.174;6.730;2024-03-22T09:30:20;10.50;99.90
56542;DHT22;42438;53.174;6.730;2024-03-22T09:32:52;10.30;99.90
56542;DHT22;42438;53.174;6.730;2024-03-22T09:35:22;10.20;99.90
56542;DHT22;42438;53.174;6.730;2024-03-22T09:37:53;10.40;99.90
56542;DHT22;42438;53.174;6.730;2024-03-22T09:40:24;10.30;99.90
56542;DHT22;42438;53.174;6.730;2024-03-22T09:42:54;10.30;99.90
56542;DHT22;42438;53.174;6.730;2024-03-22T09:45:30;10.20;99.90
56542;DHT22;42438;53.174;6.730;2024-03-22T09:48:02;10.30;99.90
56542;DHT22;42438;53.174;6.730;2024-03-22T09:50:32;10.30;99.90
56542;DHT22;42438;53.174;6.730;2024-03-22T09:53:03;10.60;99.90
56542;DHT22;42438;53.174;6.730;2024-03-22T09:55:34;10.30;99.90
56542;DHT22;42438;53.174;6.730;2024-03-22T09:58:05;10.50;99.90
56542;DHT22;42438;53.174;6.730;2024-03-22T10:00:36;10.30;99.90
56542;DHT22;42438;53.174;6.730;2024-03-22T10:03:06;10.20;99.90
56542;DHT22;42438;53.174;6.730;2024-03-22T10:05:38;10.50;99.90
56542;DHT22;42438;53.174;6.730;2024-03-22T10:08:08;10.30;99.90
56542;DHT22;42438;53.174;6.730;2024-03-22T10:10:39;10.30;99.90
56542;DHT22;42438;53.174;6.730;2024-03-22T10:13:09;10.50;99.90
56542;DHT22;42438;53.174;6.730;2024-03-22T10:15:40;10.50;99.90
56542;DHT22;42438;53.174;6.730;2024-03-22T10:18:10;10.30;99.90
56542;DHT22;42438;53.174;6.730;2024-03-22T10:20:41;10.40;99.90
56542;DHT22;42438;53.174;6.730;2024-03-22T10:23:12;10.70;99.90
56542;DHT22;42438;53.174;6.730;2024-03-22T10:25:42;9.90;99.90
56542;DHT22;42438;53.174;6.730;2024-03-22T10:28:13;10.60;99.90
56542;DHT22;42438;53.174;6.730;2024-03-22T10:30:44;10.70;99.90
56542;DHT22;42438;53.174;6.730;2024-03-22T10:33:15;10.50;99.90
56542;DHT22;42438;53.174;6.730;2024-03-22T10:35:46;10.40;99.90
56542;DHT22;42438;53.174;6.730;2024-03-22T10:38:16;10.70;99.90
56542;DHT22;42438;53.174;6.730;2024-03-22T10:40:49;10.70;99.90
56542;DHT22;42438;53.174;6.730;2024-03-22T10:43:19;10.70;99.90
56542;DHT22;42438;53.174;6.730;2024-03-22T10:45:50;10.80;99.90
56542;DHT22;42438;53.174;6.730;2024-03-22T10:48:22;10.80;99.90
56542;DHT22;42438;53.174;6.730;2024-03-22T10:50:54;10.80;99.90
56542;DHT22;42438;53.174;6.730;2024-03-22T10:53:25;10.80;99.90
56542;DHT22;42438;53.174;6.730;2024-03-22T10:55:55;10.60;99.90
56542;DHT22;42438;53.174;6.730;2024-03-22T10:58:27;10.60;99.90
56542;DHT22;42438;53.174;6.730;2024-03-22T11:00:57;10.90;99.90
56542;DHT22;42438;53.174;6.730;2024-03-22T11:03:28;10.70;99.90
56542;DHT22;42438;53.174;6.730;2024-03-22T11:06:01;11.10;99.90
56542;DHT22;42438;53.174;6.730;2024-03-22T11:08:31;11.00;99.90
56542;DHT22;42438;53.174;6.730;2024-03-22T11:11:11;11.30;99.90
56542;DHT22;42438;53.174;6.730;2024-03-22T11:13:41;11.00;99.90
56542;DHT22;42438;53.174;6.730;2024-03-22T11:16:12;11.20;99.90
56542;DHT22;42438;53.174;6.730;2024-03-22T11:18:44;11.10;99.90
56542;DHT22;42438;53.174;6.730;2024-03-22T11:21:15;10.90;99.90
56542;DHT22;42438;53.174;6.730;2024-03-22T11:23:45;11.20;99.90
56542;DHT22;42438;53.174;6.730;2024-03-22T11:26:16;11.10;99.90
56542;DHT22;42438;53.174;6.730;2024-03-22T11:28:46;10.90;99.90
56542;DHT22;42438;53.174;6.730;2024-03-22T11:31:18;11.00;99.90
56542;DHT22;42438;53.174;6.730;2024-03-22T11:33:51;11.10;99.90
56542;DHT22;42438;53.174;6.730;2024-03-22T11:36:22;11.30;99.90
56542;DHT22;42438;53.174;6.730;2024-03-22T11:38:53;11.40;99.90
56542;DHT22;42438;53.174;6.730;2024-03-22T11:41:26;11.30;99.90
56542;DHT22;42438;53.174;6.730;2024-03-22T11:43:57;11.00;99.90
56542;DHT22;42438;53.174;6.730;2024-03-22T11:46:29;11.20;99.90
56542;DHT22;42438;53.174;6.730;2024-03-22T11:49:00;10.80;99.90
56542;DHT22;42438;53.174;6.730;2024-03-22T11:51:30;11.10;99.90
56542;DHT22;42438;53.174;6.730;2024-03-22T11:54:02;11.00;99.90
56542;DHT22;42438;53.174;6.730;2024-03-22T11:56:34;10.80;99.90
56542;DHT22;42438;53.174;6.730;2024-03-22T11:59:05;10.80;99.90
56542;DHT22;42438;53.174;6.730;2024-03-22T12:01:36;10.90;99.90
56542;DHT22;42438;53.174;6.730;2024-03-22T12:04:07;10.50;99.90
56542;DHT22;42438;53.174;6.730;2024-03-22T12:06:38;10.80;99.90
56542;DHT22;42438;53.174;6.730;2024-03-22T12:09:11;10.50;99.90
56542;DHT22;42438;53.174;6.730;2024-03-22T12:11:43;10.70;99.90
56542;DHT22;42438;53.174;6.730;2024-03-22T12:14:14;10.50;99.90
56542;DHT22;42438;53.174;6.730;2024-03-22T12:16:45;10.40;99.90
56542;DHT22;42438;53.174;6.730;2024-03-22T12:19:15;10.40;99.90
56542;DHT22;42438;53.174;6.730;2024-03-22T12:21:46;10.40;99.90
56542;DHT22;42438;53.174;6.730;2024-03-22T12:24:17;10.40;99.90
56542;DHT22;42438;53.174;6.730;2024-03-22T12:26:47;10.30;99.90
56542;DHT22;42438;53.174;6.730;2024-03-22T12:29:18;10.40;99.90
56542;DHT22;42438;53.174;6.730;2024-03-22T12:31:49;10.20;99.90
56542;DHT22;42438;53.174;6.730;2024-03-22T12:34:19;10.40;99.90
56542;DHT22;42438;53.174;6.730;2024-03-22T12:36:50;10.20;99.90
56542;DHT22;42438;53.174;6.730;2024-03-22T12:39:21;10.40;99.90
56542;DHT22;42438;53.174;6.730;2024-03-22T12:41:52;10.20;99.90
56542;DHT22;42438;53.174;6.730;2024-03-22T12:44:24;10.30;99.90
56542;DHT22;42438;53.174;6.730;2024-03-22T12:46:54;10.50;99.90
56542;DHT22;42438;53.174;6.730;2024-03-22T12:49:26;11.10;99.90
56542;DHT22;42438;53.174;6.730;2024-03-22T12:51:57;10.90;99.90
56542;DHT22;42438;53.174;6.730;2024-03-22T12:54:27;11.00;99.90
56542;DHT22;42438;53.174;6.730;2024-03-22T12:56:58;11.10;99.90
56542;DHT22;42438;53.174;6.730;2024-03-22T12:59:28;10.90;99.90
56542;DHT22;42438;53.174;6.730;2024-03-22T13:01:59;10.80;99.90
56542;DHT22;42438;53.174;6.730;2024-03-22T13:04:30;10.80;99.90
56542;DHT22;42438;53.174;6.730;2024-03-22T13:07:00;10.70;99.90
56542;DHT22;42438;53.174;6.730;2024-03-22T13:09:31;11.00;99.90
56542;DHT22;42438;53.174;6.730;2024-03-22T13:12:02;10.60;99.90
56542;DHT22;42438;53.174;6.730;2024-03-22T13:14:32;10.90;99.90
56542;DHT22;42438;53.174;6.730;2024-03-22T13:17:03;10.80;99.90
56542;DHT22;42438;53.174;6.730;2024-03-22T13:19:34;10.90;99.90
56542;DHT22;42438;53.174;6.730;2024-03-22T13:22:05;10.80;99.90
56542;DHT22;42438;53.174;6.730;2024-03-22T13:24:35;10.80;99.90
56542;DHT22;42438;53.174;6.730;2024-03-22T13:27:06;10.80;99.90
56542;DHT22;42438;53.174;6.730;2024-03-22T13:29:38;10.50;99.90
56542;DHT22;42438;53.174;6.730;2024-03-22T13:32:09;10.70;99.90
56542;DHT22;42438;53.174;6.730;2024-03-22T13:34:39;10.90;99.90
56542;DHT22;42438;53.174;6.730;2024-03-22T13:37:10;11.00;99.90
56542;DHT22;42438;53.174;6.730;2024-03-22T13:39:41;11.00;99.90
56542;DHT22;42438;53.174;6.730;2024-03-22T13:42:11;10.80;99.90
56542;DHT22;42438;53.174;6.730;2024-03-22T13:44:42;10.80;99.90
56542;DHT22;42438;53.174;6.730;2024-03-22T13:47:13;10.60;99.90
56542;DHT22;42438;53.174;6.730;2024-03-22T13:49:44;10.80;99.90
56542;DHT22;42438;53.174;6.730;2024-03-22T13:52:15;10.40;99.90
56542;DHT22;42438;53.174;6.730;2024-03-22T13:54:46;10.40;99.90
56542;DHT22;42438;53.174;6.730;2024-03-22T13:57:16;10.80;99.90
56542;DHT22;42438;53.174;6.730;2024-03-22T13:59:47;10.70;99.90
56542;DHT22;42438;53.174;6.730;2024-03-22T14:02:17;10.60;99.90
56542;DHT22;42438;53.174;6.730;2024-03-22T14:04:49;10.20;99.90
56542;DHT22;42438;53.174;6.730;2024-03-22T14:07:19;10.30;99.90
56542;DHT22;42438;53.174;6.730;2024-03-22T14:09:50;10.10;99.90
56542;DHT22;42438;53.174;6.730;2024-03-22T14:12:20;10.20;99.90
56542;DHT22;42438;53.174;6.730;2024-03-22T14:14:51;10.20;99.90
56542;DHT22;42438;53.174;6.730;2024-03-22T14:17:22;10.20;99.90
56542;DHT22;42438;53.174;6.730;2024-03-22T14:19:52;10.10;99.90
56542;DHT22;42438;53.174;6.730;2024-03-22T14:22:23;10.20;99.90
56542;DHT22;42438;53.174;6.730;2024-03-22T14:24:54;10.50;99.90
56542;DHT22;42438;53.174;6.730;2024-03-22T14:27:24;10.40;99.90
56542;DHT22;42438;53.174;6.730;2024-03-22T14:29:55;10.30;99.90
56542;DHT22;42438;53.174;6.730;2024-03-22T14:32:25;10.30;99.90
56542;DHT22;42438;53.174;6.730;2024-03-22T14:34:56;10.40;1.00
56542;DHT22;42438;53.174;6.730;2024-03-22T14:37:27;10.30;1.00
56542;DHT22;42438;53.174;6.730;2024-03-22T14:39:58;10.50;99.90
56542;DHT22;42438;53.174;6.730;2024-03-22T14:42:28;10.60;99.90
56542;DHT22;42438;53.174;6.730;2024-03-22T14:45:00;10.30;99.90
56542;DHT22;42438;53.174;6.730;2024-03-22T14:47:32;10.30;99.90
56542;DHT22;42438;53.174;6.730;2024-03-22T14:50:03;10.20;1.00
56542;DHT22;42438;53.174;6.730;2024-03-22T14:52:33;10.10;98.30
56542;DHT22;42438;53.174;6.730;2024-03-22T14:55:04;10.00;1.00
56542;DHT22;42438;53.174;6.730;2024-03-22T14:57:35;9.90;99.90
56542;DHT22;42438;53.174;6.730;2024-03-22T15:00:06;10.00;1.00
56542;DHT22;42438;53.174;6.730;2024-03-22T15:02:40;9.90;1.00
56542;DHT22;42438;53.174;6.730;2024-03-22T15:05:11;9.50;1.00
56542;DHT22;42438;53.174;6.730;2024-03-22T15:07:42;9.40;99.90
56542;DHT22;42438;53.174;6.730;2024-03-22T15:10:12;9.40;1.00
56542;DHT22;42438;53.174;6.730;2024-03-22T15:12:46;9.30;1.00
56542;DHT22;42438;53.174;6.730;2024-03-22T15:15:16;9.30;1.00
56542;DHT22;42438;53.174;6.730;2024-03-22T15:17:47;9.20;99.90
56542;DHT22;42438;53.174;6.730;2024-03-22T15:20:17;9.30;1.00
56542;DHT22;42438;53.174;6.730;2024-03-22T15:22:48;9.50;28.50
56542;DHT22;42438;53.174;6.730;2024-03-22T15:25:18;9.30;1.00
56542;DHT22;42438;53.174;6.730;2024-03-22T15:27:49;9.50;47.10
56542;DHT22;42438;53.174;6.730;2024-03-22T15:30:19;9.40;4.80
56542;DHT22;42438;53.174;6.730;2024-03-22T15:32:50;9.50;99.90
56542;DHT22;42438;53.174;6.730;2024-03-22T15:35:23;9.20;30.80
56542;DHT22;42438;53.174;6.730;2024-03-22T15:37:54;9.20;99.90
56542;DHT22;42438;53.174;6.730;2024-03-22T15:40:24;9.30;1.00
56542;DHT22;42438;53.174;6.730;2024-03-22T15:42:55;9.30;99.90
56542;DHT22;42438;53.174;6.730;2024-03-22T15:45:26;9.40;1.00
56542;DHT22;42438;53.174;6.730;2024-03-22T15:47:57;9.40;99.90
56542;DHT22;42438;53.174;6.730;2024-03-22T15:50:27;9.20;99.90
56542;DHT22;42438;53.174;6.730;2024-03-22T15:52:58;9.40;1.00
56542;DHT22;42438;53.174;6.730;2024-03-22T15:55:29;9.10;1.00
56542;DHT22;42438;53.174;6.730;2024-03-22T15:58:02;9.40;99.90